createdAt,value
2019-01-13T00:00:48.457Z,1002.33
2019-01-13T00:01:48.424Z,1002.29
2019-01-13T00:02:48.389Z,1002.29
2019-01-13T00:03:48.354Z,1002.24
2019-01-13T00:04:48.322Z,1002.27
2019-01-13T00:05:48.290Z,1002.36
2019-01-13T00:06:48.254Z,1002.37
2019-01-13T00:07:48.221Z,1002.37
2019-01-13T00:08:48.187Z,1002.36
2019-01-13T00:09:48.156Z,1002.39
2019-01-13T00:10:48.120Z,1002.40
2019-01-13T00:11:48.086Z,1002.39
2019-01-13T00:12:48.052Z,1002.36
2019-01-13T00:13:48.021Z,1002.38
2019-01-13T00:14:47.987Z,1002.35
2019-01-13T00:15:47.953Z,1002.35
2019-01-13T00:16:47.919Z,1002.36
2019-01-13T00:17:47.886Z,1002.39
2019-01-13T00:18:47.852Z,1002.34
2019-01-13T00:19:47.818Z,1002.38
2019-01-13T00:20:47.785Z,1002.40
2019-01-13T00:21:47.751Z,1002.37
2019-01-13T00:22:47.720Z,1002.42
2019-01-13T00:23:47.684Z,1002.49
2019-01-13T00:24:47.652Z,1002.46
2019-01-13T00:25:47.619Z,1002.48
2019-01-13T00:26:47.584Z,1002.47
2019-01-13T00:27:47.550Z,1002.48
2019-01-13T00:28:47.517Z,1002.50
2019-01-13T00:29:47.483Z,1002.53
2019-01-13T00:30:47.450Z,1002.51
2019-01-13T00:31:47.417Z,1002.55
2019-01-13T00:32:47.382Z,1002.51
2019-01-13T00:33:47.351Z,1002.51
2019-01-13T00:34:47.316Z,1002.51
2019-01-13T00:35:47.282Z,1002.48
2019-01-13T00:36:47.248Z,1002.45
2019-01-13T00:37:47.215Z,1002.48
2019-01-13T00:38:47.182Z,1002.44
2019-01-13T00:39:47.148Z,1002.45
2019-01-13T00:40:47.116Z,1002.52
2019-01-13T00:41:47.084Z,1002.49
2019-01-13T00:42:47.050Z,1002.47
2019-01-13T00:43:47.014Z,1002.51
2019-01-13T00:44:46.981Z,1002.49
2019-01-13T00:45:46.952Z,1002.52
2019-01-13T00:46:46.914Z,1002.53
2019-01-13T00:47:46.880Z,1002.51
2019-01-13T00:48:46.848Z,1002.47
2019-01-13T00:49:46.813Z,1002.47
2019-01-13T00:50:46.782Z,1002.53
2019-01-13T00:51:46.747Z,1002.47
2019-01-13T00:52:46.717Z,1002.53
2019-01-13T00:53:46.682Z,1002.51
2019-01-13T00:54:46.648Z,1002.50
2019-01-13T00:55:46.616Z,1002.50
2019-01-13T00:56:46.579Z,1002.47
2019-01-13T00:57:46.547Z,1002.50
2019-01-13T00:58:46.513Z,1002.50
2019-01-13T00:59:46.479Z,1002.48
2019-01-13T01:00:46.446Z,1002.49
2019-01-13T01:01:46.413Z,1002.48
2019-01-13T01:02:46.380Z,1002.48
2019-01-13T01:03:46.347Z,1002.53
2019-01-13T01:04:46.314Z,1002.49
2019-01-13T01:05:46.280Z,1002.44
2019-01-13T01:06:46.246Z,1002.48
2019-01-13T01:07:47.094Z,1002.46
2019-01-13T01:08:46.181Z,1002.46
2019-01-13T01:09:46.147Z,1002.43
2019-01-13T01:10:46.113Z,1002.52
2019-01-13T01:11:46.080Z,1002.45
2019-01-13T01:12:46.047Z,1002.52
2019-01-13T01:13:46.015Z,1002.51
2019-01-13T01:14:45.980Z,1002.54
2019-01-13T01:15:45.959Z,1002.48
2019-01-13T01:16:45.913Z,1002.50
2019-01-13T01:17:45.880Z,1002.41
2019-01-13T01:18:45.851Z,1002.43
2019-01-13T01:19:45.816Z,1002.50
2019-01-13T01:20:45.783Z,1002.46
2019-01-13T01:21:45.747Z,1002.49
2019-01-13T01:22:45.714Z,1002.51
2019-01-13T01:23:45.680Z,1002.47
2019-01-13T01:24:45.648Z,1002.51
2019-01-13T01:25:45.617Z,1002.53
2019-01-13T01:26:45.580Z,1002.52
2019-01-13T01:27:45.546Z,1002.50
2019-01-13T01:28:45.515Z,1002.48
2019-01-13T01:29:45.480Z,1002.50
2019-01-13T01:30:45.449Z,1002.44
2019-01-13T01:31:45.415Z,1002.40
2019-01-13T01:32:45.380Z,1002.38
2019-01-13T01:33:45.348Z,1002.39
2019-01-13T01:34:45.316Z,1002.38
2019-01-13T01:35:45.282Z,1002.33
2019-01-13T01:36:45.248Z,1002.37
2019-01-13T01:37:45.275Z,1002.37
2019-01-13T01:38:45.182Z,1002.33
2019-01-13T01:39:45.148Z,1002.26
2019-01-13T01:40:45.114Z,1002.29
2019-01-13T01:41:45.083Z,1002.24
2019-01-13T01:42:45.052Z,1002.26
2019-01-13T01:43:45.022Z,1002.23
2019-01-13T01:44:44.982Z,1002.22
2019-01-13T01:45:44.951Z,1002.19
2019-01-13T01:46:44.915Z,1002.20
2019-01-13T01:47:44.882Z,1002.16
2019-01-13T01:48:44.850Z,1002.15
2019-01-13T01:49:44.815Z,1002.14
2019-01-13T01:50:44.783Z,1002.15
2019-01-13T01:51:44.747Z,1002.14
2019-01-13T01:52:44.716Z,1002.15
2019-01-13T01:53:44.686Z,1002.13
2019-01-13T01:54:44.649Z,1002.17
2019-01-13T01:55:44.615Z,1002.13
2019-01-13T01:56:44.582Z,1002.14
2019-01-13T01:57:44.548Z,1002.12
2019-01-13T01:58:44.515Z,1002.13
2019-01-13T01:59:44.480Z,1002.17
2019-01-13T02:00:44.449Z,1002.19
2019-01-13T02:01:44.416Z,1002.21
2019-01-13T02:02:44.385Z,1002.17
2019-01-13T02:03:44.365Z,1002.21
2019-01-13T02:04:44.319Z,1002.21
2019-01-13T02:05:44.293Z,1002.14
2019-01-13T02:06:44.249Z,1002.20
2019-01-13T02:07:44.239Z,1002.17
2019-01-13T02:08:44.182Z,1002.15
2019-01-13T02:09:44.148Z,1002.18
2019-01-13T02:10:44.117Z,1002.21
2019-01-13T02:11:44.082Z,1002.18
2019-01-13T02:12:44.050Z,1002.21
2019-01-13T02:13:44.018Z,1002.21
2019-01-13T02:14:43.983Z,1002.25
2019-01-13T02:15:43.948Z,1002.19
2019-01-13T02:16:43.915Z,1002.19
2019-01-13T02:17:43.883Z,1002.20
2019-01-13T02:18:43.851Z,1002.27
2019-01-13T02:19:43.816Z,1002.25
2019-01-13T02:20:43.782Z,1002.22
2019-01-13T02:21:43.749Z,1002.21
2019-01-13T02:22:43.717Z,1002.25
2019-01-13T02:23:43.683Z,1002.29
2019-01-13T02:24:43.649Z,1002.30
2019-01-13T02:25:43.616Z,1002.30
2019-01-13T02:26:43.586Z,1002.22
2019-01-13T02:27:43.550Z,1002.20
2019-01-13T02:28:43.520Z,1002.16
2019-01-13T02:29:43.483Z,1002.15
2019-01-13T02:30:49.035Z,1002.15
2019-01-13T02:31:43.420Z,1002.16
2019-01-13T02:32:43.383Z,1002.16
2019-01-13T02:33:43.352Z,1002.16
2019-01-13T02:34:43.317Z,1002.25
2019-01-13T02:35:43.284Z,1002.26
2019-01-13T02:36:43.250Z,1002.25
2019-01-13T02:37:43.222Z,1002.19
2019-01-13T02:38:43.187Z,1002.20
2019-01-13T02:39:43.150Z,1002.16
2019-01-13T02:40:43.118Z,1002.11
2019-01-13T02:41:43.085Z,1002.03
2019-01-13T02:42:43.056Z,1002.07
2019-01-13T02:43:43.017Z,1001.99
2019-01-13T02:44:42.985Z,1002.04
2019-01-13T02:45:42.951Z,1002.03
2019-01-13T02:46:42.920Z,1002.04
2019-01-13T02:47:42.887Z,1002.03
2019-01-13T02:48:42.851Z,1002.03
2019-01-13T02:49:42.820Z,1002.06
2019-01-13T02:50:42.787Z,1002.06
2019-01-13T02:51:42.753Z,1002.11
2019-01-13T02:52:42.737Z,1002.08
2019-01-13T02:53:42.686Z,1002.04
2019-01-13T02:54:42.654Z,1002.05
2019-01-13T02:55:42.619Z,1002.06
2019-01-13T02:56:44.002Z,1002.06
2019-01-13T02:57:42.554Z,1002.06
2019-01-13T02:58:42.521Z,1002.03
2019-01-13T02:59:42.487Z,1002.03
2019-01-13T03:00:42.455Z,1002.12
2019-01-13T03:01:42.420Z,1002.14
2019-01-13T03:02:42.391Z,1002.10
2019-01-13T03:03:42.355Z,1002.12
2019-01-13T03:04:42.321Z,1002.14
2019-01-13T03:05:42.288Z,1002.13
2019-01-13T03:06:42.254Z,1002.11
2019-01-13T03:07:42.222Z,1002.07
2019-01-13T03:08:42.190Z,1002.09
2019-01-13T03:09:42.156Z,1002.14
2019-01-13T03:10:42.136Z,1002.11
2019-01-13T03:11:42.090Z,1002.16
2019-01-13T03:12:42.056Z,1002.19
2019-01-13T03:13:42.025Z,1002.18
2019-01-13T03:14:41.990Z,1002.21
2019-01-13T03:15:41.955Z,1002.16
2019-01-13T03:16:41.924Z,1002.15
2019-01-13T03:17:41.890Z,1002.19
2019-01-13T03:18:41.860Z,1002.16
2019-01-13T03:19:41.823Z,1002.17
2019-01-13T03:20:41.791Z,1002.10
2019-01-13T03:21:41.761Z,1002.14
2019-01-13T03:22:41.740Z,1002.11
2019-01-13T03:23:41.691Z,1002.15
2019-01-13T03:24:41.657Z,1002.11
2019-01-13T03:25:41.626Z,1002.11
2019-01-13T03:26:41.595Z,1002.06
2019-01-13T03:27:41.559Z,1002.06
2019-01-13T03:28:41.525Z,1002.04
2019-01-13T03:29:41.492Z,1002.01
2019-01-13T03:30:41.462Z,1002.01
2019-01-13T03:31:41.429Z,1001.93
2019-01-13T03:32:41.394Z,1002.00
2019-01-13T03:33:41.361Z,1001.98
2019-01-13T03:34:41.326Z,1001.94
2019-01-13T03:35:41.293Z,1001.91
2019-01-13T03:36:41.264Z,1001.91
2019-01-13T03:37:41.227Z,1001.90
2019-01-13T03:38:41.194Z,1001.90
2019-01-13T03:39:41.162Z,1001.85
2019-01-13T03:40:41.135Z,1001.79
2019-01-13T03:41:41.095Z,1001.72
2019-01-13T03:42:41.062Z,1001.71
2019-01-13T03:43:41.029Z,1001.72
2019-01-13T03:44:40.996Z,1001.74
2019-01-13T03:45:40.962Z,1001.70
2019-01-13T03:46:40.935Z,1001.68
2019-01-13T03:47:40.896Z,1001.70
2019-01-13T03:48:40.864Z,1001.68
2019-01-13T03:49:40.832Z,1001.71
2019-01-13T03:50:40.798Z,1001.65
2019-01-13T03:51:40.766Z,1001.70
2019-01-13T03:52:40.730Z,1001.68
2019-01-13T03:53:40.697Z,1001.65
2019-01-13T03:54:40.666Z,1001.64
2019-01-13T03:55:40.641Z,1001.60
2019-01-13T03:56:40.597Z,1001.58
2019-01-13T03:57:40.565Z,1001.56
2019-01-13T03:58:40.533Z,1001.55
2019-01-13T03:59:40.499Z,1001.57
2019-01-13T04:00:40.467Z,1001.57
2019-01-13T04:01:40.437Z,1001.59
2019-01-13T04:02:40.401Z,1001.53
2019-01-13T04:03:40.365Z,1001.52
2019-01-13T04:04:40.333Z,1001.51
2019-01-13T04:05:40.300Z,1001.50
2019-01-13T04:06:40.268Z,1001.40
2019-01-13T04:07:40.233Z,1001.39
2019-01-13T04:08:40.198Z,1001.43
2019-01-13T04:09:40.165Z,1001.41
2019-01-13T04:10:40.135Z,1001.36
2019-01-13T04:11:40.098Z,1001.39
2019-01-13T04:12:40.067Z,1001.38
2019-01-13T04:13:40.032Z,1001.36
2019-01-13T04:14:40.013Z,1001.27
2019-01-13T04:15:39.967Z,1001.29
2019-01-13T04:16:39.935Z,1001.23
2019-01-13T04:17:39.900Z,1001.27
2019-01-13T04:18:39.871Z,1001.24
2019-01-13T04:19:39.834Z,1001.17
2019-01-13T04:20:39.799Z,1001.23
2019-01-13T04:21:39.767Z,1001.19
2019-01-13T04:22:39.736Z,1001.18
2019-01-13T04:23:39.707Z,1001.17
2019-01-13T04:24:39.669Z,1001.18
2019-01-13T04:25:39.634Z,1001.18
2019-01-13T04:26:39.601Z,1001.19
2019-01-13T04:27:39.567Z,1001.22
2019-01-13T04:28:39.534Z,1001.22
2019-01-13T04:29:39.501Z,1001.23
2019-01-13T04:30:39.468Z,1001.21
2019-01-13T04:31:39.435Z,1001.20
2019-01-13T04:32:39.400Z,1001.19
2019-01-13T04:33:39.371Z,1001.21
2019-01-13T04:34:39.339Z,1001.16
2019-01-13T04:35:39.301Z,1001.17
2019-01-13T04:36:39.268Z,1001.18
2019-01-13T04:37:39.236Z,1001.19
2019-01-13T04:38:39.202Z,1001.14
2019-01-13T04:39:39.167Z,1001.16
2019-01-13T04:40:39.137Z,1001.14
2019-01-13T04:41:39.101Z,1001.14
2019-01-13T04:42:39.068Z,1001.18
2019-01-13T04:43:39.035Z,1001.16
2019-01-13T04:44:39.003Z,1001.15
2019-01-13T04:45:38.970Z,1001.24
2019-01-13T04:46:38.937Z,1001.18
2019-01-13T04:47:38.907Z,1001.20
2019-01-13T04:48:38.872Z,1001.15
2019-01-13T04:49:38.840Z,1001.11
2019-01-13T04:50:38.803Z,1001.13
2019-01-13T04:51:38.769Z,1001.10
2019-01-13T04:52:38.743Z,1001.18
2019-01-13T04:53:38.704Z,1001.09
2019-01-13T04:54:38.671Z,1001.04
2019-01-13T04:55:38.638Z,1001.06
2019-01-13T04:56:38.605Z,1001.08
2019-01-13T04:57:38.572Z,1000.97
2019-01-13T04:58:38.546Z,1000.97
2019-01-13T04:59:38.504Z,1001.04
2019-01-13T05:00:38.484Z,1001.02
2019-01-13T05:01:38.439Z,1000.98
2019-01-13T05:02:38.405Z,1000.88
2019-01-13T05:03:38.373Z,1000.94
2019-01-13T05:04:38.339Z,1000.94
2019-01-13T05:05:38.306Z,1000.91
2019-01-13T05:06:38.274Z,1000.84
2019-01-13T05:07:38.242Z,1000.87
2019-01-13T05:08:38.207Z,1000.88
2019-01-13T05:09:38.174Z,1000.84
2019-01-13T05:10:38.141Z,1000.82
2019-01-13T05:11:38.107Z,1000.84
2019-01-13T05:12:38.074Z,1000.86
2019-01-13T05:13:38.041Z,1000.86
2019-01-13T05:14:38.008Z,1000.88
2019-01-13T05:15:38.002Z,1000.88
2019-01-13T05:16:37.942Z,1000.84
2019-01-13T05:17:37.919Z,1000.84
2019-01-13T05:18:37.876Z,1000.72
2019-01-13T05:19:37.842Z,1000.80
2019-01-13T05:20:37.809Z,1000.82
2019-01-13T05:21:37.777Z,1000.82
2019-01-13T05:22:37.743Z,1000.81
2019-01-13T05:23:37.711Z,1000.80
2019-01-13T05:24:37.677Z,1000.79
2019-01-13T05:25:37.648Z,1000.77
2019-01-13T05:26:37.614Z,1000.77
2019-01-13T05:27:37.577Z,1000.75
2019-01-13T05:28:37.545Z,1000.69
2019-01-13T05:29:37.512Z,1000.70
2019-01-13T05:30:37.490Z,1000.75
2019-01-13T05:31:41.907Z,1000.70
2019-01-13T05:32:37.412Z,1000.68
2019-01-13T05:33:37.380Z,1000.67
2019-01-13T05:34:37.596Z,1000.69
2019-01-13T05:35:37.314Z,1000.64
2019-01-13T05:36:37.284Z,1000.65
2019-01-13T05:37:37.247Z,1000.59
2019-01-13T05:38:37.217Z,1000.63
2019-01-13T05:39:37.180Z,1000.55
2019-01-13T05:40:37.152Z,1000.50
2019-01-13T05:41:37.114Z,1000.55
2019-01-13T05:42:37.083Z,1000.52
2019-01-13T05:43:37.047Z,1000.55
2019-01-13T05:44:37.017Z,1000.53
2019-01-13T05:45:36.982Z,1000.53
2019-01-13T05:46:36.955Z,1000.55
2019-01-13T05:47:36.916Z,1000.49
2019-01-13T05:48:36.882Z,1000.45
2019-01-13T05:49:36.849Z,1000.38
2019-01-13T05:50:36.818Z,1000.46
2019-01-13T05:51:36.784Z,1000.39
2019-01-13T05:52:36.750Z,1000.38
2019-01-13T05:53:36.720Z,1000.38
2019-01-13T05:54:36.684Z,1000.40
2019-01-13T05:55:36.651Z,1000.41
2019-01-13T05:56:36.618Z,1000.36
2019-01-13T05:57:36.584Z,1000.36
2019-01-13T05:58:36.552Z,1000.37
2019-01-13T05:59:36.517Z,1000.34
2019-01-13T06:00:36.486Z,1000.36
2019-01-13T06:01:36.453Z,1000.37
2019-01-13T06:02:36.422Z,1000.37
2019-01-13T06:03:36.385Z,1000.34
2019-01-13T06:04:36.353Z,1000.34
2019-01-13T06:05:36.321Z,1000.34
2019-01-13T06:06:36.290Z,1000.42
2019-01-13T06:07:36.253Z,1000.41
2019-01-13T06:08:36.220Z,1000.38
2019-01-13T06:09:36.187Z,1000.32
2019-01-13T06:10:36.154Z,1000.35
2019-01-13T06:11:36.121Z,1000.39
2019-01-13T06:12:36.088Z,1000.34
2019-01-13T06:13:36.054Z,1000.38
2019-01-13T06:14:36.023Z,1000.34
2019-01-13T06:15:35.988Z,1000.27
2019-01-13T06:16:35.957Z,1000.25
2019-01-13T06:17:35.921Z,1000.17
2019-01-13T06:18:35.890Z,1000.15
2019-01-13T06:19:35.856Z,1000.15
2019-01-13T06:20:35.870Z,1000.13
2019-01-13T06:21:35.791Z,1000.10
2019-01-13T06:22:35.757Z,1000.11
2019-01-13T06:23:35.724Z,1000.13
2019-01-13T06:24:35.691Z,1000.17
2019-01-13T06:25:35.660Z,1000.09
2019-01-13T06:26:35.627Z,1000.17
2019-01-13T06:27:35.593Z,1000.13
2019-01-13T06:28:35.561Z,1000.09
2019-01-13T06:29:35.526Z,1000.11
2019-01-13T06:30:35.493Z,1000.10
2019-01-13T06:31:35.460Z,1000.13
2019-01-13T06:32:35.427Z,1000.06
2019-01-13T06:33:35.398Z,1000.05
2019-01-13T06:34:35.362Z,1000.02
2019-01-13T06:35:35.328Z,1000.00
2019-01-13T06:36:35.296Z,1000.01
2019-01-13T06:37:35.262Z,999.99
2019-01-13T06:38:35.230Z,999.93
2019-01-13T06:39:35.195Z,999.88
2019-01-13T06:40:35.163Z,999.84
2019-01-13T06:41:35.130Z,999.87
2019-01-13T06:42:35.098Z,999.78
2019-01-13T06:43:35.064Z,999.79
2019-01-13T06:44:35.033Z,999.77
2019-01-13T06:45:34.999Z,999.75
2019-01-13T06:46:34.968Z,999.72
2019-01-13T06:47:34.933Z,999.70
2019-01-13T06:48:34.901Z,999.66
2019-01-13T06:49:34.867Z,999.71
2019-01-13T06:50:34.834Z,999.63
2019-01-13T06:51:34.801Z,999.67
2019-01-13T06:52:34.768Z,999.72
2019-01-13T06:53:34.736Z,999.66
2019-01-13T06:54:34.702Z,999.73
2019-01-13T06:55:34.670Z,999.75
2019-01-13T06:56:34.636Z,999.71
2019-01-13T06:57:34.604Z,999.82
2019-01-13T06:58:34.575Z,999.84
2019-01-13T06:59:34.538Z,999.74
2019-01-13T07:00:34.505Z,999.72
2019-01-13T07:01:34.474Z,999.60
2019-01-13T07:02:34.439Z,999.66
2019-01-13T07:03:34.406Z,999.70
2019-01-13T07:04:34.374Z,999.63
2019-01-13T07:05:34.343Z,999.58
2019-01-13T07:06:34.309Z,999.62
2019-01-13T07:07:34.275Z,999.59
2019-01-13T07:08:34.241Z,999.60
2019-01-13T07:09:34.209Z,999.53
2019-01-13T07:10:34.176Z,999.54
2019-01-13T07:11:34.143Z,999.55
2019-01-13T07:12:34.109Z,999.49
2019-01-13T07:13:34.077Z,999.48
2019-01-13T07:14:34.045Z,999.48
2019-01-13T07:15:34.012Z,999.41
2019-01-13T07:16:33.976Z,999.40
2019-01-13T07:17:33.944Z,999.41
2019-01-13T07:18:33.911Z,999.42
2019-01-13T07:19:33.877Z,999.39
2019-01-13T07:20:33.844Z,999.41
2019-01-13T07:21:33.811Z,999.38
2019-01-13T07:22:33.779Z,999.39
2019-01-13T07:23:33.745Z,999.37
2019-01-13T07:24:33.710Z,999.35
2019-01-13T07:25:33.678Z,999.32
2019-01-13T07:26:33.647Z,999.30
2019-01-13T07:27:33.613Z,999.25
2019-01-13T07:28:33.581Z,999.27
2019-01-13T07:29:33.547Z,999.18
2019-01-13T07:30:33.518Z,999.17
2019-01-13T07:31:33.479Z,999.22
2019-01-13T07:32:33.446Z,999.23
2019-01-13T07:33:33.413Z,999.18
2019-01-13T07:34:33.382Z,999.17
2019-01-13T07:35:33.346Z,999.13
2019-01-13T07:36:33.315Z,999.09
2019-01-13T07:37:33.282Z,999.14
2019-01-13T07:38:33.250Z,999.08
2019-01-13T07:39:33.214Z,999.11
2019-01-13T07:40:33.182Z,999.03
2019-01-13T07:41:33.151Z,999.05
2019-01-13T07:42:33.117Z,999.02
2019-01-13T07:43:33.087Z,999.03
2019-01-13T07:44:33.052Z,998.96
2019-01-13T07:45:33.016Z,998.97
2019-01-13T07:46:32.984Z,998.92
2019-01-13T07:47:32.951Z,998.93
2019-01-13T07:48:32.918Z,998.95
2019-01-13T07:49:32.884Z,998.96
2019-01-13T07:50:32.851Z,998.92
2019-01-13T07:51:32.817Z,998.95
2019-01-13T07:52:32.784Z,998.86
2019-01-13T07:53:32.752Z,998.89
2019-01-13T07:54:32.719Z,998.80
2019-01-13T07:55:32.685Z,998.81
2019-01-13T07:56:32.652Z,998.81
2019-01-13T07:57:32.620Z,998.75
2019-01-13T07:58:32.585Z,998.68
2019-01-13T07:59:32.553Z,998.72
2019-01-13T08:00:32.523Z,998.64
2019-01-13T08:01:32.488Z,998.69
2019-01-13T08:02:32.455Z,998.70
2019-01-13T08:03:32.424Z,998.68
2019-01-13T08:04:32.388Z,998.64
2019-01-13T08:05:32.353Z,998.59
2019-01-13T08:06:32.321Z,998.54
2019-01-13T08:07:32.288Z,998.56
2019-01-13T08:08:32.255Z,998.53
2019-01-13T08:09:32.221Z,998.49
2019-01-13T08:10:32.191Z,998.50
2019-01-13T08:11:32.155Z,998.43
2019-01-13T08:12:32.122Z,998.47
2019-01-13T08:13:32.090Z,998.46
2019-01-13T08:14:32.057Z,998.44
2019-01-13T08:15:32.024Z,998.44
2019-01-13T08:16:31.991Z,998.41
2019-01-13T08:17:31.958Z,998.40
2019-01-13T08:18:31.925Z,998.39
2019-01-13T08:19:31.892Z,998.38
2019-01-13T08:20:31.859Z,998.37
2019-01-13T08:21:31.827Z,998.35
2019-01-13T08:22:31.793Z,998.28
2019-01-13T08:23:31.760Z,998.28
2019-01-13T08:24:31.728Z,998.28
2019-01-13T08:25:31.696Z,998.27
2019-01-13T08:26:31.662Z,998.23
2019-01-13T08:27:31.628Z,998.29
2019-01-13T08:28:31.597Z,998.24
2019-01-13T08:29:32.756Z,998.30
2019-01-13T08:30:31.530Z,998.21
2019-01-13T08:31:31.498Z,998.18
2019-01-13T08:32:31.464Z,998.10
2019-01-13T08:33:31.431Z,998.13
2019-01-13T08:34:31.399Z,998.16
2019-01-13T08:35:31.370Z,998.06
2019-01-13T08:36:31.333Z,998.02
2019-01-13T08:37:31.300Z,998.01
2019-01-13T08:38:31.270Z,998.06
2019-01-13T08:39:31.234Z,997.99
2019-01-13T08:40:31.203Z,997.96
2019-01-13T08:41:31.170Z,997.89
2019-01-13T08:42:31.138Z,997.92
2019-01-13T08:43:31.103Z,997.86
2019-01-13T08:44:31.072Z,997.87
2019-01-13T08:45:31.038Z,997.88
2019-01-13T08:46:31.008Z,997.86
2019-01-13T08:47:30.973Z,997.81
2019-01-13T08:48:30.939Z,997.79
2019-01-13T08:49:31.749Z,997.75
2019-01-13T08:50:30.874Z,997.69
2019-01-13T08:51:31.749Z,997.71
2019-01-13T08:52:30.808Z,997.66
2019-01-13T08:53:30.775Z,997.62
2019-01-13T08:54:30.745Z,997.53
2019-01-13T08:55:30.714Z,997.51
2019-01-13T08:56:30.676Z,997.46
2019-01-13T08:57:30.650Z,997.44
2019-01-13T08:58:30.612Z,997.42
2019-01-13T08:59:30.578Z,997.39
2019-01-13T09:00:30.549Z,997.34
2019-01-13T09:01:30.514Z,997.35
2019-01-13T09:02:32.366Z,997.33
2019-01-13T09:03:30.449Z,997.26
2019-01-13T09:04:30.415Z,997.23
2019-01-13T09:05:30.383Z,997.22
2019-01-13T09:06:30.351Z,997.14
2019-01-13T09:07:30.315Z,997.13
2019-01-13T09:08:30.283Z,997.13
2019-01-13T09:09:30.285Z,997.07
2019-01-13T09:10:30.218Z,997.04
2019-01-13T09:11:30.187Z,997.03
2019-01-13T09:12:30.152Z,996.98
2019-01-13T09:13:30.120Z,996.95
2019-01-13T09:14:30.086Z,996.95
2019-01-13T09:15:30.053Z,996.95
2019-01-13T09:16:30.021Z,996.90
2019-01-13T09:17:30.003Z,996.88
2019-01-13T09:18:29.959Z,996.83
2019-01-13T09:19:29.922Z,996.79
2019-01-13T09:20:29.891Z,996.83
2019-01-13T09:21:29.859Z,996.72
2019-01-13T09:22:29.825Z,996.71
2019-01-13T09:23:29.792Z,996.70
2019-01-13T09:24:29.759Z,996.65
2019-01-13T09:25:29.726Z,996.65
2019-01-13T09:26:29.693Z,996.56
2019-01-13T09:27:29.698Z,996.56
2019-01-13T09:28:29.626Z,996.54
2019-01-13T09:29:29.596Z,996.49
2019-01-13T09:30:29.562Z,996.51
2019-01-13T09:31:29.529Z,996.45
2019-01-13T09:32:29.498Z,996.44
2019-01-13T09:33:29.464Z,996.39
2019-01-13T09:34:29.432Z,996.39
2019-01-13T09:35:29.398Z,996.30
2019-01-13T09:36:29.365Z,996.23
2019-01-13T09:37:29.334Z,996.20
2019-01-13T09:38:29.300Z,996.22
2019-01-13T09:39:29.268Z,996.18
2019-01-13T09:40:29.234Z,996.14
2019-01-13T09:41:29.202Z,996.10
2019-01-13T09:42:29.169Z,996.06
2019-01-13T09:43:29.137Z,996.08
2019-01-13T09:44:29.105Z,995.99
2019-01-13T09:45:29.071Z,996.01
2019-01-13T09:46:29.040Z,995.97
2019-01-13T09:47:29.005Z,996.00
2019-01-13T09:48:28.973Z,995.92
2019-01-13T09:49:28.943Z,995.88
2019-01-13T09:50:28.908Z,995.89
2019-01-13T09:51:28.878Z,995.78
2019-01-13T09:52:28.843Z,995.85
2019-01-13T09:53:28.810Z,995.71
2019-01-13T09:54:28.780Z,995.75
2019-01-13T09:55:28.744Z,995.68
2019-01-13T09:56:28.711Z,995.60
2019-01-13T09:57:28.679Z,995.59
2019-01-13T09:58:28.646Z,995.55
2019-01-13T09:59:28.613Z,995.52
2019-01-13T10:00:28.582Z,995.48
2019-01-13T10:01:28.548Z,995.48
2019-01-13T10:02:28.517Z,995.37
2019-01-13T10:03:28.483Z,995.38
2019-01-13T10:04:28.451Z,995.37
2019-01-13T10:05:28.417Z,995.34
2019-01-13T10:06:28.385Z,995.28
2019-01-13T10:07:28.354Z,995.25
2019-01-13T10:08:28.319Z,995.20
2019-01-13T10:09:28.288Z,995.15
2019-01-13T10:10:28.254Z,995.15
2019-01-13T10:11:28.222Z,995.13
2019-01-13T10:12:28.239Z,995.08
2019-01-13T10:13:28.156Z,995.08
2019-01-13T10:14:28.124Z,995.05
2019-01-13T10:15:28.094Z,995.08
2019-01-13T10:16:28.060Z,995.00
2019-01-13T10:17:28.026Z,995.03
2019-01-13T10:18:27.993Z,994.96
2019-01-13T10:19:27.960Z,994.95
2019-01-13T10:20:27.928Z,994.92
2019-01-13T10:21:27.897Z,994.82
2019-01-13T10:22:27.867Z,994.81
2019-01-13T10:23:27.830Z,994.77
2019-01-13T10:24:27.802Z,994.81
2019-01-13T10:25:27.767Z,994.77
2019-01-13T10:26:27.734Z,994.77
2019-01-13T10:27:27.704Z,994.70
2019-01-13T10:28:27.671Z,994.72
2019-01-13T10:29:27.639Z,994.69
2019-01-13T10:30:27.605Z,994.62
2019-01-13T10:31:27.573Z,994.70
2019-01-13T10:32:27.540Z,994.68
2019-01-13T10:33:27.508Z,994.63
2019-01-13T10:34:27.475Z,994.60
2019-01-13T10:35:27.443Z,994.59
2019-01-13T10:36:27.410Z,994.55
2019-01-13T10:37:27.378Z,994.51
2019-01-13T10:38:27.346Z,994.53
2019-01-13T10:39:27.313Z,994.52
2019-01-13T10:40:27.280Z,994.40
2019-01-13T10:41:27.249Z,994.38
2019-01-13T10:42:27.218Z,994.38
2019-01-13T10:43:27.184Z,994.38
2019-01-13T10:44:27.153Z,994.38
2019-01-13T10:45:27.123Z,994.35
2019-01-13T10:46:27.088Z,994.29
2019-01-13T10:47:27.054Z,994.33
2019-01-13T10:48:27.025Z,994.29
2019-01-13T10:49:26.995Z,994.37
2019-01-13T10:50:26.960Z,994.28
2019-01-13T10:51:26.924Z,994.22
2019-01-13T10:52:26.897Z,994.24
2019-01-13T10:53:26.861Z,994.24
2019-01-13T10:54:26.830Z,994.18
2019-01-13T10:55:26.798Z,994.10
2019-01-13T10:56:26.764Z,994.08
2019-01-13T10:57:26.731Z,994.04
2019-01-13T10:58:26.698Z,994.04
2019-01-13T10:59:26.666Z,994.03
2019-01-13T11:00:26.634Z,994.00
2019-01-13T11:01:28.172Z,994.02
2019-01-13T11:02:26.570Z,993.97
2019-01-13T11:03:26.536Z,993.96
2019-01-13T11:04:26.507Z,993.93
2019-01-13T11:05:26.476Z,993.95
2019-01-13T11:06:26.447Z,993.94
2019-01-13T11:07:26.408Z,993.89
2019-01-13T11:08:26.375Z,993.82
2019-01-13T11:09:26.343Z,993.81
2019-01-13T11:10:26.312Z,993.83
2019-01-13T11:11:26.279Z,993.75
2019-01-13T11:12:26.247Z,993.83
2019-01-13T11:13:26.214Z,993.82
2019-01-13T11:14:26.183Z,993.80
2019-01-13T11:15:26.151Z,993.79
2019-01-13T11:16:26.117Z,993.74
2019-01-13T11:17:26.086Z,993.79
2019-01-13T11:18:26.053Z,993.81
2019-01-13T11:19:26.024Z,993.73
2019-01-13T11:20:25.988Z,993.63
2019-01-13T11:21:25.957Z,993.67
2019-01-13T11:22:25.924Z,993.65
2019-01-13T11:23:25.891Z,993.62
2019-01-13T11:24:25.862Z,993.56
2019-01-13T11:25:25.830Z,993.54
2019-01-13T11:26:25.795Z,993.51
2019-01-13T11:27:25.762Z,993.56
2019-01-13T11:28:25.730Z,993.55
2019-01-13T11:29:32.541Z,993.56
2019-01-13T11:30:25.667Z,993.48
2019-01-13T11:31:25.634Z,993.45
2019-01-13T11:32:25.602Z,993.38
2019-01-13T11:33:25.571Z,993.36
2019-01-13T11:34:25.557Z,993.38
2019-01-13T11:35:25.506Z,993.38
2019-01-13T11:36:25.473Z,993.34
2019-01-13T11:37:25.442Z,993.40
2019-01-13T11:38:25.410Z,993.33
2019-01-13T11:39:25.390Z,993.27
2019-01-13T11:40:25.345Z,993.27
2019-01-13T11:41:25.313Z,993.18
2019-01-13T11:42:25.281Z,993.18
2019-01-13T11:43:25.247Z,993.15
2019-01-13T11:44:25.219Z,993.15
2019-01-13T11:45:25.185Z,993.07
2019-01-13T11:46:25.154Z,993.04
2019-01-13T11:47:25.121Z,993.03
2019-01-13T11:48:25.090Z,993.01
2019-01-13T11:49:25.057Z,992.94
2019-01-13T11:50:25.031Z,992.96
2019-01-13T11:51:24.994Z,992.96
2019-01-13T11:52:24.963Z,992.86
2019-01-13T11:53:24.931Z,992.85
2019-01-13T11:54:24.899Z,992.86
2019-01-13T11:55:24.866Z,992.76
2019-01-13T11:56:24.833Z,992.76
2019-01-13T11:57:24.802Z,992.75
2019-01-13T11:58:24.770Z,992.77
2019-01-13T11:59:24.789Z,992.69
2019-01-13T12:00:24.709Z,992.71
2019-01-13T12:01:24.676Z,992.58
2019-01-13T12:02:24.643Z,992.65
2019-01-13T12:03:24.610Z,992.60
2019-01-13T12:04:24.584Z,992.60
2019-01-13T12:05:24.547Z,992.53
2019-01-13T12:06:24.515Z,992.56
2019-01-13T12:07:24.482Z,992.47
2019-01-13T12:08:24.452Z,992.51
2019-01-13T12:09:24.418Z,992.45
2019-01-13T12:10:24.396Z,992.43
2019-01-13T12:11:24.356Z,992.34
2019-01-13T12:12:24.324Z,992.39
2019-01-13T12:13:24.294Z,992.35
2019-01-13T12:14:24.261Z,992.36
2019-01-13T12:15:24.237Z,992.34
2019-01-13T12:16:24.196Z,992.33